createdAt,value
2017-08-21T00:01:22.880Z,54.13
2017-08-21T00:03:54.984Z,54.42
2017-08-21T00:06:27.300Z,54.76
2017-08-21T00:08:58.942Z,54.92
2017-08-21T00:11:31.408Z,55.01
2017-08-21T00:14:04.594Z,55.13
2017-08-21T00:16:36.521Z,55.26
2017-08-21T00:19:07.868Z,55.32
2017-08-21T00:21:39.496Z,55.26
2017-08-21T00:24:14.378Z,55.14
2017-08-21T00:26:45.900Z,55.22
2017-08-21T00:29:18.244Z,55.09
2017-08-21T00:31:50.357Z,54.65
2017-08-21T00:34:22.874Z,55.91
2017-08-21T00:36:54.309Z,56.73
2017-08-21T00:39:26.187Z,57.56
2017-08-21T00:41:57.831Z,57.58
2017-08-21T00:44:29.349Z,57.63
2017-08-21T00:47:01.034Z,57.32
2017-08-21T00:49:33.252Z,57.25
2017-08-21T00:52:06.351Z,57.32
2017-08-21T00:54:38.357Z,57.43
2017-08-21T00:57:10.157Z,57.88
2017-08-21T00:59:41.736Z,58.07
2017-08-21T01:02:13.807Z,58.17
2017-08-21T01:04:45.939Z,58.26
2017-08-21T01:07:18.769Z,58.21
2017-08-21T01:09:50.472Z,58.11
2017-08-21T01:12:22.736Z,58.48
2017-08-21T01:14:54.339Z,59.33
2017-08-21T01:17:28.539Z,60.12
2017-08-21T01:20:00.355Z,60.26
2017-08-21T01:22:32.648Z,60.47
2017-08-21T01:25:04.812Z,60.54
2017-08-21T01:27:36.455Z,60.52
2017-08-21T01:30:09.743Z,60.12
2017-08-21T01:32:42.067Z,60.32
2017-08-21T01:35:14.596Z,60.44
2017-08-21T01:37:46.774Z,60.67
2017-08-21T01:40:19.556Z,60.68
2017-08-21T01:42:51.336Z,60.61
2017-08-21T01:45:25.020Z,60.26
2017-08-21T01:47:56.548Z,60.24
2017-08-21T01:50:28.073Z,60.21
2017-08-21T01:53:00.364Z,60.31
2017-08-21T01:55:31.798Z,60.39
2017-08-21T01:58:04.433Z,60.53
2017-08-21T02:00:36.321Z,61.19
2017-08-21T02:03:07.907Z,61.56
2017-08-21T02:05:40.247Z,62.13
2017-08-21T02:10:53.106Z,63.73
2017-08-21T02:13:25.561Z,64.10
2017-08-21T02:15:57.795Z,64.49
2017-08-21T02:18:31.135Z,65.02
2017-08-21T02:21:04.070Z,65.40
2017-08-21T02:23:37.254Z,65.50
2017-08-21T02:26:09.058Z,66.55
2017-08-21T02:28:40.772Z,67.37
2017-08-21T02:31:12.146Z,67.66
2017-08-21T02:33:43.665Z,67.77
2017-08-21T02:36:15.531Z,67.40
2017-08-21T02:38:48.430Z,67.28
2017-08-21T02:41:21.572Z,67.26
2017-08-21T02:43:52.944Z,67.20
2017-08-21T02:46:24.649Z,67.20
2017-08-21T02:48:56.347Z,67.08
2017-08-21T02:51:27.736Z,67.08
2017-08-21T02:53:59.396Z,66.69
2017-08-21T02:56:31.804Z,66.63
2017-08-21T02:59:04.241Z,66.67
2017-08-21T03:01:37.959Z,66.79
2017-08-21T03:04:09.499Z,66.81
2017-08-21T03:06:41.548Z,67.00
2017-08-21T03:09:13.180Z,66.41
2017-08-21T03:11:44.611Z,66.83
2017-08-21T03:17:14.225Z,67.02
2017-08-21T03:19:46.921Z,66.92
2017-08-21T03:22:20.057Z,67.13
2017-08-21T03:24:52.676Z,66.76
2017-08-21T03:27:24.341Z,66.86
2017-08-21T03:29:55.734Z,67.25
2017-08-21T03:32:27.074Z,67.97
2017-08-21T03:34:59.114Z,68.23
2017-08-21T03:37:30.885Z,68.12
2017-08-21T03:40:06.002Z,67.81
2017-08-21T03:42:37.859Z,67.47
2017-08-21T03:45:09.536Z,67.15
2017-08-21T03:47:41.083Z,67.17
2017-08-21T03:50:14.503Z,66.98
2017-08-21T03:52:46.517Z,66.82
2017-08-21T03:55:20.475Z,66.55
2017-08-21T03:57:51.869Z,66.67
2017-08-21T04:00:23.807Z,66.40
2017-08-21T04:02:55.201Z,66.43
2017-08-21T04:05:26.763Z,65.92
2017-08-21T04:07:58.454Z,65.86
2017-08-21T04:10:29.852Z,65.65
2017-08-21T04:13:01.742Z,65.33
2017-08-21T04:15:33.092Z,65.15
2017-08-21T04:18:08.050Z,65.28
2017-08-21T04:20:39.694Z,65.29
2017-08-21T04:23:11.042Z,65.40
2017-08-21T04:25:42.391Z,66.08
2017-08-21T04:28:14.590Z,66.17
2017-08-21T04:30:46.009Z,66.22
2017-08-21T04:33:21.841Z,66.35
2017-08-21T04:35:53.197Z,66.56
2017-08-21T04:38:24.885Z,66.68
2017-08-21T04:40:56.278Z,67.17
2017-08-21T04:43:28.946Z,67.15
2017-08-21T04:46:00.407Z,67.15
2017-08-21T04:48:31.804Z,67.15
2017-08-21T04:51:06.438Z,67.06
2017-08-21T04:53:37.827Z,66.94
2017-08-21T04:56:09.222Z,66.83
2017-08-21T04:58:40.881Z,66.94
2017-08-21T05:01:12.223Z,67.41
2017-08-21T05:03:43.571Z,67.75
2017-08-21T05:06:17.935Z,67.41
2017-08-21T05:08:49.654Z,67.73
2017-08-21T05:11:22.785Z,67.77
2017-08-21T05:13:54.512Z,67.26
2017-08-21T05:16:26.647Z,66.88
2017-08-21T05:18:58.292Z,66.72
2017-08-21T05:21:37.551Z,67.50
2017-08-21T05:24:09.775Z,67.80
2017-08-21T05:26:42.501Z,67.65
2017-08-21T05:29:14.149Z,67.22
2017-08-21T05:31:45.544Z,66.38
2017-08-21T05:34:17.993Z,65.75
2017-08-21T05:36:50.714Z,65.05
2017-08-21T05:39:23.581Z,64.54
2017-08-21T05:41:54.936Z,63.98
2017-08-21T05:44:26.795Z,63.52
2017-08-21T05:47:10.223Z,63.06
2017-08-21T05:49:41.580Z,62.78
2017-08-21T05:52:14.211Z,62.25
2017-08-21T05:54:45.761Z,61.79
2017-08-21T05:57:19.533Z,61.07
2017-08-21T05:59:51.291Z,60.50
2017-08-21T06:02:23.639Z,60.20
2017-08-21T06:08:02.665Z,58.20
2017-08-21T06:10:34.833Z,57.38
2017-08-21T06:13:06.752Z,56.42
2017-08-21T06:15:38.591Z,55.31
2017-08-21T06:18:10.820Z,54.86
2017-08-21T06:20:42.491Z,54.09
2017-08-21T06:23:14.816Z,54.69
2017-08-21T06:25:47.333Z,54.77
2017-08-21T06:28:19.443Z,54.31
2017-08-21T06:30:51.140Z,54.09
2017-08-21T06:33:22.608Z,53.03
2017-08-21T06:35:54.143Z,53.39
2017-08-21T06:38:25.806Z,53.89
2017-08-21T06:40:57.133Z,54.11
2017-08-21T06:43:32.888Z,53.84
2017-08-21T06:46:06.082Z,54.51
2017-08-21T06:48:37.830Z,54.55
2017-08-21T06:51:09.419Z,53.79
2017-08-21T06:53:41.155Z,53.67
2017-08-21T06:56:13.724Z,53.85
2017-08-21T06:58:47.029Z,54.09
2017-08-21T07:01:18.626Z,54.22
2017-08-21T07:03:50.020Z,55.06
2017-08-21T07:06:21.653Z,54.56
2017-08-21T07:08:53.151Z,53.13
2017-08-21T07:14:39.263Z,52.10
2017-08-21T07:17:11.037Z,50.87
2017-08-21T07:19:42.790Z,49.04
2017-08-21T07:22:14.321Z,48.23
2017-08-21T07:24:47.737Z,50.22
2017-08-21T07:27:19.213Z,50.63
2017-08-21T07:29:50.996Z,50.35
2017-08-21T07:32:22.657Z,50.00
2017-08-21T07:34:55.023Z,49.81
2017-08-21T07:37:26.397Z,50.57
2017-08-21T07:39:57.803Z,51.08
2017-08-21T07:42:30.083Z,51.28
2017-08-21T07:45:01.517Z,51.98
2017-08-21T07:47:32.958Z,51.12
2017-08-21T07:50:05.506Z,50.71
2017-08-21T07:52:37.121Z,50.61
2017-08-21T07:55:08.521Z,50.86
2017-08-21T07:57:39.975Z,50.65
2017-08-21T08:00:11.709Z,50.73
2017-08-21T08:02:43.805Z,50.39
2017-08-21T08:05:15.547Z,49.89
2017-08-21T08:07:47.142Z,50.16
2017-08-21T08:10:18.619Z,50.58
2017-08-21T08:12:50.466Z,50.35
2017-08-21T08:15:21.873Z,49.16
2017-08-21T08:17:53.622Z,48.62
2017-08-21T08:20:25.001Z,47.91
2017-08-21T08:22:57.568Z,48.00
2017-08-21T08:25:29.988Z,47.63
2017-08-21T08:28:01.953Z,49.03
2017-08-21T08:30:33.741Z,48.86
2017-08-21T08:33:05.147Z,47.73
2017-08-21T08:35:37.050Z,48.17
2017-08-21T08:38:08.672Z,48.20
2017-08-21T08:40:40.469Z,47.08
2017-08-21T08:43:12.367Z,47.17
2017-08-21T08:45:43.914Z,47.69
2017-08-21T08:48:15.799Z,48.00
2017-08-21T08:50:48.508Z,46.84
2017-08-21T08:53:19.933Z,45.19
2017-08-21T08:55:51.720Z,45.71
2017-08-21T08:58:23.327Z,45.69
2017-08-21T09:00:54.815Z,44.83
2017-08-21T09:03:27.609Z,44.07
2017-08-21T09:05:59.822Z,45.31
2017-08-21T09:08:31.573Z,44.94
2017-08-21T09:11:05.477Z,43.27
2017-08-21T09:13:37.166Z,42.78
2017-08-21T09:16:08.850Z,42.49
2017-08-21T09:21:18.247Z,42.35
2017-08-21T09:23:50.199Z,43.59
2017-08-21T09:26:21.536Z,42.58
2017-08-21T09:28:54.269Z,43.17
2017-08-21T09:31:25.716Z,41.96
2017-08-21T09:33:57.481Z,42.10
2017-08-21T09:36:29.260Z,40.06
2017-08-21T09:39:01.020Z,40.34
2017-08-21T09:41:32.447Z,40.15
2017-08-21T09:44:05.007Z,39.21
2017-08-21T09:46:36.468Z,39.27
2017-08-21T09:49:07.896Z,38.68
2017-08-21T09:51:39.811Z,38.09
2017-08-21T09:54:11.259Z,36.34
2017-08-21T09:56:43.066Z,35.54
2017-08-21T09:59:14.516Z,37.29
2017-08-21T10:01:46.664Z,36.19
2017-08-21T10:04:18.452Z,34.81
2017-08-21T10:06:50.230Z,34.29
2017-08-21T10:09:21.855Z,33.67
2017-08-21T10:11:53.688Z,33.86
2017-08-21T10:14:25.490Z,34.77
2017-08-21T10:16:56.952Z,35.46
2017-08-21T10:19:28.496Z,35.33
2017-08-21T10:22:00.445Z,35.99
2017-08-21T10:24:31.866Z,35.75
2017-08-21T10:27:03.917Z,34.31
2017-08-21T10:29:35.239Z,34.45
2017-08-21T10:32:06.968Z,34.61
2017-08-21T10:34:38.313Z,34.71
2017-08-21T10:37:09.646Z,33.45
2017-08-21T10:39:41.311Z,31.85
2017-08-21T10:42:12.683Z,32.73
2017-08-21T10:44:45.026Z,32.79
2017-08-21T10:47:16.893Z,32.96
2017-08-21T10:49:49.257Z,31.79
2017-08-21T10:52:20.766Z,32.04
2017-08-21T10:54:52.625Z,32.46
2017-08-21T10:57:24.127Z,32.86
2017-08-21T10:59:55.656Z,33.07
2017-08-21T11:02:27.416Z,31.67
2017-08-21T11:04:58.826Z,31.01
2017-08-21T11:07:30.698Z,28.90
2017-08-21T11:10:03.256Z,28.75
2017-08-21T11:12:34.672Z,28.27
2017-08-21T11:15:06.224Z,28.77
2017-08-21T11:17:37.903Z,28.05
2017-08-21T11:20:09.486Z,26.44
2017-08-21T11:22:41.192Z,25.94
2017-08-21T11:25:12.561Z,26.46
2017-08-21T11:27:44.030Z,26.65
2017-08-21T11:30:15.669Z,26.52
2017-08-21T11:32:47.909Z,27.48
2017-08-21T11:35:19.256Z,28.23
2017-08-21T11:37:51.089Z,29.16
2017-08-21T11:40:22.682Z,30.92
2017-08-21T11:42:54.196Z,31.26
2017-08-21T11:45:25.862Z,30.70
2017-08-21T11:47:57.353Z,30.18
2017-08-21T11:50:29.020Z,29.04
2017-08-21T11:53:00.909Z,28.44
2017-08-21T11:55:33.570Z,28.74
2017-08-21T11:58:05.847Z,28.97
2017-08-21T12:00:37.299Z,29.59
2017-08-21T12:03:08.885Z,29.36
2017-08-21T12:05:41.120Z,29.13
2017-08-21T12:08:13.233Z,28.81
2017-08-21T12:10:45.972Z,28.01
2017-08-21T12:13:17.427Z,28.16
2017-08-21T12:15:48.734Z,28.86
2017-08-21T12:18:20.347Z,30.38
2017-08-21T12:20:51.792Z,30.07
2017-08-21T12:23:23.170Z,29.73
2017-08-21T12:25:54.800Z,29.57
2017-08-21T12:28:26.169Z,28.99
2017-08-21T12:30:57.866Z,28.06
2017-08-21T12:33:29.189Z,28.24
2017-08-21T12:36:00.597Z,26.04
2017-08-21T12:38:31.928Z,26.76
2017-08-21T12:41:03.311Z,26.89
2017-08-21T12:43:34.702Z,27.06
2017-08-21T12:46:06.365Z,25.80
2017-08-21T12:48:37.695Z,24.46
2017-08-21T12:51:09.300Z,25.12
2017-08-21T12:53:40.618Z,24.82
2017-08-21T12:56:11.931Z,25.37
2017-08-21T12:58:44.151Z,26.79
2017-08-21T13:01:15.520Z,26.88
2017-08-21T13:03:47.603Z,27.88
2017-08-21T13:06:19.356Z,28.41
2017-08-21T13:08:50.715Z,28.19
2017-08-21T13:11:22.025Z,28.23
2017-08-21T13:13:53.810Z,29.15
2017-08-21T13:16:25.123Z,30.73
2017-08-21T13:18:56.542Z,29.21
2017-08-21T13:21:28.186Z,29.78
2017-08-21T13:23:59.529Z,30.01
2017-08-21T13:26:31.102Z,29.45
2017-08-21T13:29:02.522Z,29.51
2017-08-21T13:31:33.846Z,29.11
2017-08-21T13:34:06.331Z,28.74
2017-08-21T13:36:37.696Z,28.18
2017-08-21T13:39:09.010Z,27.61
2017-08-21T13:41:40.816Z,26.44
2017-08-21T13:44:12.145Z,26.85
2017-08-21T13:46:43.949Z,24.17
2017-08-21T13:49:15.255Z,20.50
2017-08-21T13:51:47.330Z,20.91
2017-08-21T13:54:18.677Z,22.46
2017-08-21T13:56:49.996Z,22.48
2017-08-21T13:59:21.635Z,23.94
2017-08-21T14:01:52.949Z,25.39
2017-08-21T14:07:29.692Z,27.04
2017-08-21T14:10:05.657Z,27.36
2017-08-21T14:12:39.967Z,27.54
2017-08-21T14:15:20.622Z,27.39
2017-08-21T14:17:53.177Z,28.04
2017-08-21T14:20:27.718Z,28.18
2017-08-21T14:23:03.446Z,28.22
2017-08-21T14:25:53.812Z,28.64
2017-08-21T14:28:38.575Z,28.62
2017-08-21T14:31:24.482Z,28.76
2017-08-21T14:34:03.185Z,28.67
2017-08-21T14:36:48.106Z,29.09
2017-08-21T14:39:21.916Z,29.09
2017-08-21T14:41:55.305Z,28.92
2017-08-21T14:44:27.833Z,27.79
2017-08-21T14:47:01.082Z,25.47
2017-08-21T14:49:38.904Z,25.91
2017-08-21T14:52:11.450Z,25.64
2017-08-21T14:54:45.286Z,24.86
2017-08-21T14:57:20.678Z,24.61
2017-08-21T15:07:26.458Z,28.37
2017-08-21T15:10:25.273Z,28.77
2017-08-21T15:36:09.651Z,29.94
2017-08-21T15:38:41.133Z,29.78
2017-08-21T15:41:12.788Z,30.18
2017-08-21T15:43:44.897Z,30.64
2017-08-21T15:46:19.728Z,28.23
2017-08-21T15:48:51.437Z,23.74
2017-08-21T15:51:23.697Z,21.52
2017-08-21T15:53:55.289Z,20.25
2017-08-21T15:56:27.247Z,21.16
2017-08-21T15:58:59.408Z,22.67
2017-08-21T16:01:32.557Z,23.40
2017-08-21T16:04:06.217Z,24.20
2017-08-21T16:06:37.705Z,23.66
2017-08-21T16:09:10.333Z,23.83
2017-08-21T16:11:41.740Z,24.73
2017-08-21T16:14:13.135Z,26.31
2017-08-21T16:19:45.146Z,26.62
2017-08-21T16:22:16.881Z,24.41
2017-08-21T16:27:47.732Z,22.78
2017-08-21T16:30:19.412Z,22.32
2017-08-21T16:32:51.139Z,21.59
2017-08-21T16:35:23.912Z,20.77
2017-08-21T16:37:55.510Z,21.68
2017-08-21T16:40:27.279Z,21.16
2017-08-21T16:42:59.163Z,20.94
2017-08-21T16:45:30.716Z,20.51
2017-08-21T16:48:04.378Z,20.80
2017-08-21T16:50:35.925Z,20.74
2017-08-21T16:56:21.136Z,20.74
2017-08-21T17:04:54.551Z,23.14
2017-08-21T17:13:25.725Z,28.20
2017-08-21T17:15:57.115Z,29.14
2017-08-21T17:18:28.546Z,30.15
2017-08-21T17:21:00.400Z,31.21
2017-08-21T17:35:37.243Z,32.79
2017-08-21T17:38:09.717Z,35.97
2017-08-21T17:43:45.737Z,36.72
2017-08-21T17:46:19.396Z,37.03
2017-08-21T17:48:53.741Z,36.87
2017-08-21T17:51:25.711Z,37.14
2017-08-21T17:53:59.066Z,37.12
2017-08-21T17:56:30.651Z,37.74
2017-08-21T17:59:12.695Z,38.10
2017-08-21T18:01:45.729Z,38.21
2017-08-21T18:04:19.309Z,38.24
2017-08-21T18:06:57.155Z,38.59
2017-08-21T18:09:29.162Z,38.79
2017-08-21T18:12:01.797Z,38.96
2017-08-21T18:14:34.943Z,39.18
2017-08-21T18:17:06.378Z,39.21
2017-08-21T18:19:38.008Z,39.31
2017-08-21T18:22:09.635Z,39.68
2017-08-21T18:24:41.340Z,39.83
2017-08-21T18:27:12.703Z,40.19
2017-08-21T18:29:44.182Z,40.97
2017-08-21T18:32:15.883Z,40.90
2017-08-21T18:34:48.091Z,41.16
2017-08-21T18:37:22.430Z,42.06
2017-08-21T18:39:54.288Z,41.72
2017-08-21T18:42:25.921Z,41.75
2017-08-21T18:44:57.298Z,41.98
2017-08-21T18:47:28.927Z,42.96
2017-08-21T18:50:00.607Z,43.44
2017-08-21T18:52:32.312Z,42.82
2017-08-21T18:55:09.229Z,43.41
2017-08-21T19:00:45.823Z,43.17
2017-08-21T19:03:17.400Z,43.46
2017-08-21T19:05:49.112Z,43.48
2017-08-21T19:08:22.477Z,42.94
2017-08-21T19:10:54.248Z,42.90
2017-08-21T19:13:25.927Z,43.30
2017-08-21T19:18:54.249Z,43.12
2017-08-21T19:21:31.215Z,43.62
2017-08-21T19:24:03.450Z,43.66
2017-08-21T19:26:39.178Z,43.72
2017-08-21T19:29:10.774Z,44.18
2017-08-21T19:34:49.568Z,44.42
2017-08-21T19:37:21.641Z,44.51
2017-08-21T19:39:53.624Z,44.69
2017-08-21T19:42:24.986Z,44.76
2017-08-21T19:44:56.624Z,44.48
2017-08-21T19:47:28.046Z,44.87
2017-08-21T19:49:59.507Z,44.99
2017-08-21T19:52:31.289Z,44.98
2017-08-21T19:55:03.295Z,45.23
2017-08-21T19:57:34.698Z,45.29
2017-08-21T20:00:12.896Z,45.35
2017-08-21T20:02:46.740Z,45.70
2017-08-21T20:05:19.754Z,46.05
2017-08-21T20:07:51.477Z,46.30
2017-08-21T20:10:24.325Z,46.62
2017-08-21T20:12:57.286Z,47.00
2017-08-21T20:15:28.931Z,47.29
2017-08-21T20:18:00.786Z,47.42
2017-08-21T20:20:33.482Z,47.66
2017-08-21T20:26:18.591Z,48.21
2017-08-21T20:28:50.212Z,48.42
2017-08-21T20:31:21.753Z,48.79
2017-08-21T20:33:53.445Z,48.97
2017-08-21T20:36:25.868Z,49.29
2017-08-21T20:38:57.578Z,49.49
2017-08-21T20:41:28.925Z,49.76
2017-08-21T20:44:00.353Z,49.90
2017-08-21T20:46:32.894Z,50.16
2017-08-21T20:49:04.548Z,50.24
2017-08-21T20:51:36.235Z,50.63
2017-08-21T20:54:07.789Z,50.87
2017-08-21T20:56:39.208Z,50.76
2017-08-21T20:59:11.288Z,50.76
2017-08-21T21:01:42.709Z,51.20
2017-08-21T21:04:17.448Z,51.22
2017-08-21T21:06:54.132Z,51.37
2017-08-21T21:09:26.528Z,51.70
2017-08-21T21:11:57.963Z,51.72
2017-08-21T21:14:29.423Z,52.07
2017-08-21T21:17:01.400Z,53.03
2017-08-21T21:19:32.891Z,52.67
2017-08-21T21:22:06.333Z,52.28
2017-08-21T21:27:42.954Z,52.08
2017-08-21T21:30:15.282Z,52.40
2017-08-21T21:32:47.306Z,52.52
2017-08-21T21:35:18.655Z,52.83
2017-08-21T21:37:50.067Z,53.02
2017-08-21T21:40:21.961Z,53.67
2017-08-21T21:42:53.357Z,53.61
2017-08-21T21:45:24.720Z,53.62
2017-08-21T21:47:56.868Z,53.84
2017-08-21T21:50:28.691Z,53.80
2017-08-21T21:53:00.310Z,53.84
2017-08-21T21:55:32.897Z,53.94
2017-08-21T21:58:05.540Z,53.64
2017-08-21T22:00:37.408Z,53.83
2017-08-21T22:03:08.794Z,53.63
2017-08-21T22:05:40.500Z,53.72
2017-08-21T22:08:11.884Z,53.67
2017-08-21T22:10:43.258Z,53.75
2017-08-21T22:13:15.046Z,53.93
2017-08-21T22:15:46.501Z,54.09
2017-08-21T22:18:17.879Z,54.11
2017-08-21T22:20:49.590Z,54.19
2017-08-21T22:23:20.938Z,58.46
2017-08-21T22:25:52.706Z,58.09
2017-08-21T22:28:24.356Z,56.15
2017-08-21T22:30:55.678Z,55.31
2017-08-21T22:33:27.484Z,55.07
2017-08-21T22:35:58.852Z,55.35
2017-08-21T22:38:31.423Z,55.58
2017-08-21T22:41:03.677Z,55.82
2017-08-21T22:43:35.366Z,56.16
2017-08-21T22:46:06.762Z,56.46
2017-08-21T22:48:38.620Z,56.64
2017-08-21T22:51:10.068Z,56.80
2017-08-21T22:53:41.986Z,56.95
2017-08-21T22:56:17.271Z,57.17
2017-08-21T22:58:48.965Z,57.31
2017-08-21T23:01:21.037Z,57.43
2017-08-21T23:03:53.681Z,57.79
2017-08-21T23:06:25.120Z,58.10
2017-08-21T23:08:56.715Z,58.17
2017-08-21T23:11:28.169Z,58.31
2017-08-21T23:13:59.514Z,58.43
2017-08-21T23:16:32.605Z,58.52
2017-08-21T23:19:04.258Z,58.62
2017-08-21T23:21:36.433Z,58.87
2017-08-21T23:24:07.789Z,58.89
2017-08-21T23:26:39.201Z,58.96
2017-08-21T23:29:16.090Z,59.11
2017-08-21T23:31:47.449Z,59.42
2017-08-21T23:34:19.179Z,59.57
2017-08-21T23:36:50.568Z,59.75
2017-08-21T23:39:23.213Z,60.30
2017-08-21T23:41:54.682Z,61.83
2017-08-21T23:44:26.150Z,63.05
2017-08-21T23:46:57.935Z,63.87
2017-08-21T23:49:31.389Z,64.38
2017-08-21T23:52:05.114Z,64.37
2017-08-21T23:54:36.566Z,64.41
2017-08-21T23:57:08.199Z,64.67
2017-08-21T23:59:40.132Z,64.66
